createdAt,value
2022-12-29T00:00:14.823Z,1.60
2022-12-29T00:02:41.854Z,1.73
2022-12-29T00:05:09.321Z,1.58
2022-12-29T00:07:35.920Z,1.85
2022-12-29T00:10:02.554Z,1.30
2022-12-29T00:12:29.225Z,2.00
2022-12-29T00:14:55.802Z,3.47
2022-12-29T00:17:22.494Z,3.90
2022-12-29T00:19:49.164Z,2.85
2022-12-29T00:22:16.889Z,2.78
2022-12-29T00:24:45.726Z,2.60
2022-12-29T00:27:13.476Z,2.40
2022-12-29T00:29:40.743Z,2.70
2022-12-29T00:32:10.593Z,2.33
2022-12-29T00:34:37.124Z,2.03
2022-12-29T00:37:03.748Z,2.20
2022-12-29T00:39:30.291Z,3.58
2022-12-29T00:41:56.886Z,2.53
2022-12-29T00:44:23.393Z,2.38
2022-12-29T00:46:50.053Z,2.83
2022-12-29T00:49:16.773Z,1.80
2022-12-29T00:51:44.919Z,1.75
2022-12-29T00:54:11.689Z,1.73
2022-12-29T00:56:38.318Z,1.80
2022-12-29T00:59:07.649Z,1.30
2022-12-29T01:01:34.980Z,2.53
2022-12-29T01:04:04.073Z,2.45
2022-12-29T01:06:31.658Z,3.58
2022-12-29T01:08:58.301Z,3.97
2022-12-29T01:11:24.916Z,3.58
2022-12-29T01:13:51.442Z,4.07
2022-12-29T01:16:18.082Z,4.45
2022-12-29T01:18:45.003Z,3.45
2022-12-29T01:21:11.537Z,3.60
2022-12-29T01:23:38.076Z,2.97
2022-12-29T01:26:14.736Z,2.93
2022-12-29T01:28:41.331Z,2.33
2022-12-29T01:31:08.899Z,2.42
2022-12-29T01:33:35.605Z,2.78
2022-12-29T01:36:06.910Z,2.58
2022-12-29T01:38:34.574Z,2.57
2022-12-29T01:41:01.153Z,2.55
2022-12-29T01:43:54.554Z,1.92
2022-12-29T01:46:36.279Z,1.83
2022-12-29T01:49:08.634Z,1.90
2022-12-29T01:51:44.603Z,2.07
2022-12-29T01:54:16.863Z,2.13
2022-12-29T01:56:44.608Z,2.08
2022-12-29T01:59:16.705Z,1.80
2022-12-29T02:01:45.671Z,2.20
2022-12-29T02:04:13.827Z,2.10
2022-12-29T02:06:50.849Z,2.33
2022-12-29T02:09:17.373Z,2.40
2022-12-29T02:11:45.313Z,1.98
2022-12-29T02:14:13.532Z,2.20
2022-12-29T02:16:58.130Z,2.03
2022-12-29T02:19:47.925Z,2.10
2022-12-29T02:22:28.271Z,1.70
2022-12-29T02:25:32.655Z,2.20
2022-12-29T02:28:27.431Z,2.13
2022-12-29T02:31:42.540Z,2.10
2022-12-29T02:34:41.100Z,2.08
2022-12-29T02:37:18.691Z,2.20
2022-12-29T02:40:06.882Z,2.13
2022-12-29T02:42:53.152Z,2.20
2022-12-29T02:45:52.918Z,2.87
2022-12-29T02:48:29.122Z,3.08
2022-12-29T02:51:05.363Z,3.92
2022-12-29T02:53:35.483Z,4.03
2022-12-29T02:56:01.975Z,4.03
2022-12-29T02:58:28.569Z,3.67
2022-12-29T03:01:19.523Z,3.10
2022-12-29T03:04:10.810Z,3.42
2022-12-29T03:06:55.912Z,3.40
2022-12-29T03:09:39.278Z,3.30
2022-12-29T03:12:25.212Z,3.47
2022-12-29T03:15:11.649Z,2.80
2022-12-29T03:18:11.971Z,3.10
2022-12-29T03:20:57.475Z,2.80
2022-12-29T03:23:25.869Z,3.60
2022-12-29T03:25:57.069Z,2.67
2022-12-29T03:28:28.426Z,2.97
2022-12-29T03:30:57.025Z,3.40
2022-12-29T03:33:26.388Z,3.08
2022-12-29T03:35:58.564Z,3.17
2022-12-29T03:38:34.492Z,3.50
2022-12-29T03:41:06.195Z,3.72
2022-12-29T03:43:33.043Z,3.47
2022-12-29T03:45:59.551Z,2.40
2022-12-29T03:48:26.209Z,3.60
2022-12-29T03:50:52.691Z,3.13
2022-12-29T03:53:19.255Z,2.65
2022-12-29T03:55:46.320Z,2.67
2022-12-29T03:58:12.866Z,2.55
2022-12-29T04:00:39.467Z,2.83
2022-12-29T04:03:06.162Z,3.13
2022-12-29T04:05:32.960Z,2.63
2022-12-29T04:07:59.493Z,2.20
2022-12-29T04:10:26.076Z,2.40
2022-12-29T04:12:53.000Z,2.95
2022-12-29T04:15:19.596Z,2.80
2022-12-29T04:17:46.272Z,2.67
2022-12-29T04:20:12.854Z,3.55
2022-12-29T04:22:39.436Z,2.45
2022-12-29T04:25:06.590Z,2.50
2022-12-29T04:27:33.246Z,2.80
2022-12-29T04:29:59.779Z,3.95
2022-12-29T04:32:26.425Z,2.83
2022-12-29T04:34:52.932Z,2.75
2022-12-29T04:37:19.513Z,3.35
2022-12-29T04:39:46.145Z,3.27
2022-12-29T04:42:12.644Z,2.67
2022-12-29T04:44:44.899Z,2.63
2022-12-29T04:47:11.960Z,1.92
2022-12-29T04:49:38.590Z,3.30
2022-12-29T04:52:05.181Z,3.10
2022-12-29T04:54:31.737Z,2.75
2022-12-29T04:56:58.279Z,3.47
2022-12-29T04:59:24.861Z,3.30
2022-12-29T05:01:51.532Z,2.90
2022-12-29T05:04:18.141Z,3.27
2022-12-29T05:06:44.706Z,3.20
2022-12-29T05:09:11.468Z,3.17
2022-12-29T05:11:38.004Z,3.35
2022-12-29T05:14:04.856Z,2.88
2022-12-29T05:16:31.551Z,3.90
2022-12-29T05:18:58.125Z,3.38
2022-12-29T05:21:24.817Z,3.67
2022-12-29T05:23:51.613Z,3.58
2022-12-29T05:26:18.256Z,3.05
2022-12-29T05:28:45.416Z,3.93
2022-12-29T05:31:12.133Z,4.00
2022-12-29T05:33:38.833Z,3.80
2022-12-29T05:36:09.693Z,4.00
2022-12-29T05:38:36.599Z,3.42
2022-12-29T05:41:03.192Z,3.67
2022-12-29T05:43:29.771Z,3.58
2022-12-29T05:45:57.235Z,2.67
2022-12-29T05:48:23.846Z,3.80
2022-12-29T05:50:52.012Z,2.97
2022-12-29T05:53:19.178Z,3.03
2022-12-29T05:55:49.071Z,3.45
2022-12-29T05:58:17.339Z,25.50
2022-12-29T06:00:44.890Z,3.45
2022-12-29T06:03:11.796Z,4.18
2022-12-29T06:05:38.639Z,3.30
2022-12-29T06:08:05.586Z,3.50
2022-12-29T06:10:32.277Z,1.83
2022-12-29T06:12:59.768Z,3.88
2022-12-29T06:15:26.396Z,5.47
2022-12-29T06:17:53.091Z,8.70
2022-12-29T06:20:19.828Z,8.82
2022-12-29T06:22:46.527Z,10.85
2022-12-29T06:25:13.217Z,10.75
2022-12-29T06:27:40.062Z,5.45
2022-12-29T06:30:07.352Z,8.00
2022-12-29T06:32:33.970Z,7.13
2022-12-29T06:35:00.608Z,5.07
2022-12-29T06:37:27.548Z,6.75
2022-12-29T06:39:54.330Z,6.13
2022-12-29T06:42:21.056Z,5.33
2022-12-29T06:44:47.900Z,5.25
2022-12-29T06:47:14.484Z,4.03
2022-12-29T06:49:41.127Z,4.30
2022-12-29T06:52:12.801Z,4.57
2022-12-29T06:54:39.961Z,8.83
2022-12-29T06:57:06.681Z,6.32
2022-12-29T06:59:34.440Z,5.95
2022-12-29T07:02:01.301Z,5.68
2022-12-29T07:04:28.079Z,6.18
2022-12-29T07:06:55.503Z,5.80
2022-12-29T07:09:22.117Z,5.65
2022-12-29T07:11:48.773Z,5.43
2022-12-29T07:14:15.602Z,6.53
2022-12-29T07:16:42.301Z,5.78
2022-12-29T07:19:09.044Z,6.60
2022-12-29T07:21:35.750Z,5.78
2022-12-29T07:24:02.505Z,5.97
2022-12-29T07:26:34.422Z,5.40
2022-12-29T07:29:04.382Z,5.97
2022-12-29T07:31:31.651Z,5.10
2022-12-29T07:33:58.478Z,6.20
2022-12-29T07:36:29.295Z,5.60
2022-12-29T07:38:59.713Z,4.63
2022-12-29T07:41:26.399Z,4.15
2022-12-29T07:43:53.023Z,6.07
2022-12-29T07:46:56.278Z,5.50
2022-12-29T07:49:06.528Z,5.22
2022-12-29T07:51:33.203Z,5.25
2022-12-29T07:54:00.216Z,5.38
2022-12-29T07:56:28.249Z,6.67
2022-12-29T07:58:54.989Z,5.57
2022-12-29T08:01:21.787Z,5.20
2022-12-29T08:03:52.606Z,5.20
2022-12-29T08:06:22.033Z,5.50
2022-12-29T08:08:48.774Z,4.57
2022-12-29T08:11:15.443Z,5.75
2022-12-29T08:13:42.221Z,5.22
2022-12-29T08:16:09.024Z,5.00
2022-12-29T08:18:35.707Z,5.60
2022-12-29T08:21:04.277Z,5.27
2022-12-29T08:23:31.169Z,6.00
2022-12-29T08:25:59.447Z,5.65
2022-12-29T08:28:26.575Z,7.35
2022-12-29T08:30:53.179Z,5.93
2022-12-29T08:33:20.268Z,6.03
2022-12-29T08:35:46.826Z,6.28
2022-12-29T08:38:13.390Z,5.60
2022-12-29T08:40:40.111Z,5.88
2022-12-29T08:43:08.037Z,6.40
2022-12-29T08:45:35.335Z,6.57
2022-12-29T08:48:01.963Z,6.13
2022-12-29T08:50:28.512Z,8.18
2022-12-29T08:52:55.019Z,9.10
2022-12-29T08:55:21.620Z,7.50
2022-12-29T08:57:48.152Z,6.25
2022-12-29T09:00:15.131Z,5.97
2022-12-29T09:02:42.672Z,6.90
2022-12-29T09:05:09.634Z,5.15
2022-12-29T09:07:36.764Z,7.00
2022-12-29T09:10:03.992Z,66.30
2022-12-29T09:12:36.121Z,11.15
2022-12-29T09:15:04.292Z,8.65
2022-12-29T09:17:30.960Z,8.65
2022-12-29T09:19:57.484Z,8.50
2022-12-29T09:22:24.070Z,8.50
2022-12-29T09:24:50.783Z,9.45
2022-12-29T09:27:17.362Z,7.88
2022-12-29T09:29:43.890Z,7.18
2022-12-29T09:32:13.905Z,6.90
2022-12-29T09:34:43.628Z,6.83
2022-12-29T09:37:10.236Z,7.45
2022-12-29T09:39:36.897Z,7.60
2022-12-29T09:42:26.687Z,6.05
2022-12-29T09:45:15.421Z,6.05
2022-12-29T09:47:46.267Z,6.97
2022-12-29T09:50:18.670Z,5.57
2022-12-29T09:52:51.307Z,6.70
2022-12-29T09:55:25.744Z,6.63
2022-12-29T09:57:59.793Z,6.85
2022-12-29T10:00:38.765Z,6.30
2022-12-29T10:03:17.496Z,7.38
2022-12-29T10:06:05.369Z,6.88
2022-12-29T10:08:45.510Z,6.70
2022-12-29T10:11:31.144Z,6.25
2022-12-29T10:14:15.933Z,5.60
2022-12-29T10:16:54.813Z,5.88
2022-12-29T10:19:28.288Z,6.80
2022-12-29T10:22:52.457Z,6.00
2022-12-29T10:25:21.774Z,6.28
2022-12-29T10:27:50.281Z,5.75
2022-12-29T10:30:18.137Z,6.50
2022-12-29T10:32:47.868Z,6.57
2022-12-29T10:35:24.509Z,6.95
2022-12-29T10:37:56.869Z,8.00
2022-12-29T10:40:30.681Z,6.67
2022-12-29T10:42:59.194Z,9.27
2022-12-29T10:45:31.582Z,8.95
2022-12-29T10:48:25.908Z,6.65
2022-12-29T10:51:01.748Z,7.40
2022-12-29T10:53:39.570Z,8.23
2022-12-29T10:56:17.712Z,7.25
2022-12-29T10:58:49.692Z,6.60
2022-12-29T11:01:18.556Z,7.28
2022-12-29T11:03:59.167Z,7.30
2022-12-29T11:06:28.767Z,6.90
2022-12-29T11:08:58.933Z,4.90
2022-12-29T11:11:36.977Z,7.90
2022-12-29T11:14:28.647Z,8.52
2022-12-29T11:17:03.708Z,6.97
2022-12-29T11:19:39.049Z,7.30
2022-12-29T11:22:33.985Z,7.60
2022-12-29T11:25:13.435Z,7.25
2022-12-29T11:27:40.005Z,7.82
2022-12-29T11:30:24.108Z,8.02
2022-12-29T11:32:55.535Z,7.18
2022-12-29T11:35:43.485Z,7.05
2022-12-29T11:38:27.662Z,7.50
2022-12-29T11:40:54.276Z,7.40
2022-12-29T11:43:44.927Z,8.35
2022-12-29T11:46:26.813Z,7.23
2022-12-29T11:48:53.770Z,6.43
2022-12-29T11:51:36.964Z,5.95
2022-12-29T11:54:05.803Z,6.95
2022-12-29T11:56:41.316Z,7.03
2022-12-29T11:59:53.714Z,7.53
2022-12-29T12:02:33.648Z,6.65
2022-12-29T12:05:10.197Z,5.00
2022-12-29T12:07:43.855Z,6.93
2022-12-29T12:10:22.291Z,5.95
2022-12-29T12:13:19.473Z,7.40
2022-12-29T12:15:56.973Z,6.45
2022-12-29T12:18:38.641Z,7.47
2022-12-29T12:21:22.880Z,7.85
2022-12-29T12:24:10.914Z,6.53
2022-12-29T12:27:03.235Z,7.57
2022-12-29T12:29:39.426Z,6.25
2022-12-29T12:32:18.396Z,7.78
2022-12-29T12:34:46.568Z,5.85
2022-12-29T12:38:04.770Z,8.15
2022-12-29T12:41:01.859Z,9.20
2022-12-29T12:43:47.525Z,6.90
2022-12-29T12:46:25.118Z,6.70
2022-12-29T12:49:22.679Z,9.13
2022-12-29T12:52:05.138Z,8.35
2022-12-29T12:54:50.651Z,8.33
2022-12-29T12:57:39.561Z,6.40
2022-12-29T13:00:13.579Z,10.00
2022-12-29T13:02:58.942Z,7.72
2022-12-29T13:05:50.445Z,7.18
2022-12-29T13:08:19.619Z,8.47
2022-12-29T13:11:08.886Z,8.25
2022-12-29T13:14:07.692Z,5.70
2022-12-29T13:16:42.947Z,9.98
2022-12-29T13:19:25.869Z,9.90
2022-12-29T13:22:14.118Z,10.93
2022-12-29T13:25:14.432Z,8.75
2022-12-29T13:27:46.038Z,8.73
2022-12-29T13:30:19.134Z,10.00
2022-12-29T13:32:56.487Z,9.80
2022-12-29T13:35:29.439Z,9.27
2022-12-29T13:38:04.662Z,10.85
2022-12-29T13:40:35.669Z,11.43
2022-12-29T13:43:02.897Z,12.35
2022-12-29T13:45:32.605Z,13.45
2022-12-29T13:48:06.373Z,11.10
2022-12-29T13:50:37.670Z,9.93
2022-12-29T13:53:28.517Z,11.00
2022-12-29T13:56:25.219Z,11.27
2022-12-29T13:58:57.299Z,9.45
2022-12-29T14:01:44.115Z,11.60
2022-12-29T14:04:15.227Z,5.72
2022-12-29T14:06:42.211Z,11.13
2022-12-29T14:09:44.157Z,11.13
2022-12-29T14:12:38.424Z,12.90
2022-12-29T14:15:11.389Z,11.93
2022-12-29T14:17:41.139Z,9.45
2022-12-29T14:20:20.914Z,10.15
2022-12-29T14:23:02.748Z,8.18
2022-12-29T14:25:53.971Z,13.35
2022-12-29T14:28:32.886Z,11.53
2022-12-29T14:31:05.070Z,11.98
2022-12-29T14:33:34.322Z,10.30
2022-12-29T14:36:20.516Z,10.98
2022-12-29T14:38:48.558Z,13.55
2022-12-29T14:41:25.292Z,11.80
2022-12-29T14:43:59.123Z,9.23
2022-12-29T14:46:44.342Z,11.10
2022-12-29T14:49:18.690Z,9.65
2022-12-29T14:51:46.904Z,7.25
2022-12-29T14:54:32.389Z,14.90
2022-12-29T14:57:03.066Z,10.52
2022-12-29T14:59:33.008Z,11.35
2022-12-29T15:02:04.154Z,8.63
2022-12-29T15:04:37.080Z,14.98
2022-12-29T15:07:10.107Z,11.57
2022-12-29T15:09:41.587Z,12.32
2022-12-29T15:12:26.705Z,10.15
2022-12-29T15:14:58.507Z,9.00
2022-12-29T15:17:35.549Z,8.52
2022-12-29T15:20:19.210Z,14.43
2022-12-29T15:22:51.177Z,13.10
2022-12-29T15:25:19.060Z,10.27
2022-12-29T15:28:01.159Z,12.43
2022-12-29T15:30:27.810Z,12.45
2022-12-29T15:32:54.530Z,13.47
2022-12-29T15:35:36.822Z,14.13
2022-12-29T15:38:26.238Z,11.82
2022-12-29T15:41:20.086Z,15.52
2022-12-29T15:43:58.965Z,13.60
2022-12-29T15:46:26.043Z,7.20
2022-12-29T15:48:52.675Z,18.08
2022-12-29T15:51:23.854Z,16.33
2022-12-29T15:53:53.009Z,8.80
2022-12-29T15:56:19.589Z,14.15
2022-12-29T15:58:51.668Z,16.07
2022-12-29T16:01:37.302Z,15.68
2022-12-29T16:04:07.334Z,17.45
2022-12-29T16:06:33.787Z,16.63
2022-12-29T16:09:19.499Z,15.35
2022-12-29T16:11:53.552Z,15.03
2022-12-29T16:14:26.487Z,17.05
2022-12-29T16:16:53.175Z,10.95
2022-12-29T16:19:19.799Z,17.23
2022-12-29T16:21:47.287Z,14.93
2022-12-29T16:24:20.202Z,18.77
2022-12-29T16:26:58.037Z,12.20
2022-12-29T16:29:24.802Z,16.55
2022-12-29T16:31:56.682Z,15.38
2022-12-29T16:34:29.437Z,14.80
2022-12-29T16:36:57.941Z,12.00
2022-12-29T16:39:34.747Z,13.88
2022-12-29T16:42:01.875Z,17.92
2022-12-29T16:44:31.462Z,15.07
2022-12-29T16:47:06.336Z,15.35
2022-12-29T16:49:34.993Z,14.77
2022-12-29T16:52:02.376Z,16.25
2022-12-29T16:54:35.200Z,16.58
2022-12-29T16:57:02.408Z,14.55
2022-12-29T16:59:43.609Z,13.30
2022-12-29T17:02:20.632Z,16.17
2022-12-29T17:04:47.403Z,16.00
2022-12-29T17:07:32.056Z,16.52
2022-12-29T17:09:58.695Z,17.55
2022-12-29T17:12:28.733Z,16.88
2022-12-29T17:15:08.305Z,15.13
2022-12-29T17:17:42.440Z,15.57
2022-12-29T17:20:19.329Z,11.52
2022-12-29T17:22:46.754Z,13.32
2022-12-29T17:25:15.227Z,16.15
2022-12-29T17:27:45.709Z,14.63
2022-12-29T17:30:19.962Z,13.23
2022-12-29T17:33:17.508Z,13.82
2022-12-29T17:35:44.266Z,17.77
2022-12-29T17:38:37.277Z,16.55
2022-12-29T17:41:04.539Z,16.53
2022-12-29T17:43:36.650Z,14.48
2022-12-29T17:46:06.837Z,18.00
2022-12-29T17:48:33.962Z,14.52
2022-12-29T17:51:00.746Z,12.32
2022-12-29T17:53:30.328Z,13.10
2022-12-29T17:55:56.907Z,14.38
2022-12-29T17:58:26.315Z,12.80
2022-12-29T18:00:56.332Z,12.38
2022-12-29T18:03:37.882Z,13.23
2022-12-29T18:06:06.443Z,12.00
2022-12-29T18:08:33.086Z,12.05
2022-12-29T18:11:00.492Z,16.02
2022-12-29T18:13:43.664Z,12.32
2022-12-29T18:16:13.729Z,14.30
2022-12-29T18:18:40.417Z,14.37
2022-12-29T18:21:14.191Z,12.80
2022-12-29T18:23:40.791Z,14.88
2022-12-29T18:26:22.294Z,15.00
2022-12-29T18:28:54.199Z,15.25
2022-12-29T18:31:22.317Z,12.83
2022-12-29T18:33:50.683Z,14.40
2022-12-29T18:36:18.081Z,11.38
2022-12-29T18:38:45.658Z,13.57
2022-12-29T18:41:21.272Z,12.07
2022-12-29T18:43:48.424Z,15.77
2022-12-29T18:46:22.138Z,12.57
2022-12-29T18:48:49.536Z,14.95
2022-12-29T18:51:21.502Z,16.38
2022-12-29T18:53:48.387Z,14.43
2022-12-29T18:56:15.215Z,13.00
2022-12-29T18:58:41.882Z,13.68
2022-12-29T19:01:19.119Z,13.98
2022-12-29T19:03:45.762Z,9.60
2022-12-29T19:06:12.356Z,15.00
2022-12-29T19:08:38.997Z,12.20
2022-12-29T19:11:06.358Z,14.50
2022-12-29T19:13:33.048Z,14.05
2022-12-29T19:15:59.983Z,14.90
2022-12-29T19:18:45.078Z,14.23
2022-12-29T19:21:13.827Z,11.67
2022-12-29T19:23:40.428Z,15.88
2022-12-29T19:26:07.225Z,15.55
2022-12-29T19:28:33.940Z,14.32
2022-12-29T19:31:02.455Z,13.73
2022-12-29T19:33:29.273Z,13.43
2022-12-29T19:36:01.557Z,11.63
2022-12-29T19:38:28.314Z,13.70
2022-12-29T19:40:54.797Z,13.98
2022-12-29T19:43:21.362Z,14.18
2022-12-29T19:45:47.964Z,10.60
2022-12-29T19:48:16.937Z,11.48
2022-12-29T19:50:43.840Z,14.10
2022-12-29T19:53:11.228Z,13.35
2022-12-29T19:55:37.763Z,13.82
2022-12-29T19:58:04.400Z,13.23
2022-12-29T20:00:30.935Z,12.63
2022-12-29T20:02:57.625Z,14.18
2022-12-29T20:05:24.477Z,13.48
2022-12-29T20:07:51.089Z,14.15
2022-12-29T20:10:17.802Z,13.23
2022-12-29T20:12:44.412Z,11.35
2022-12-29T20:15:16.347Z,13.43
2022-12-29T20:18:12.656Z,13.48
2022-12-29T20:20:29.432Z,11.93
2022-12-29T20:22:56.039Z,13.07
2022-12-29T20:28:09.117Z,11.02
2022-12-29T20:30:36.129Z,12.13
2022-12-29T20:33:07.769Z,12.45
2022-12-29T20:35:35.011Z,11.97
2022-12-29T20:38:01.562Z,12.32
2022-12-29T20:40:28.116Z,11.27
2022-12-29T20:42:54.659Z,9.40
2022-12-29T20:45:21.769Z,11.98
2022-12-29T20:47:48.270Z,13.43
2022-12-29T20:50:15.621Z,14.45
2022-12-29T20:52:42.098Z,14.90
2022-12-29T20:55:08.860Z,14.20
2022-12-29T20:58:05.654Z,13.40
2022-12-29T21:00:22.875Z,10.63
2022-12-29T21:02:50.125Z,14.00
2022-12-29T21:05:25.239Z,12.25
2022-12-29T21:07:53.493Z,12.23
2022-12-29T21:10:20.768Z,10.32
2022-12-29T21:12:48.152Z,15.23
2022-12-29T21:15:15.415Z,11.05
2022-12-29T21:17:45.489Z,11.52
2022-12-29T21:20:13.640Z,13.73
2022-12-29T21:22:40.365Z,13.98
2022-12-29T21:25:07.109Z,13.87
2022-12-29T21:27:33.656Z,13.98
2022-12-29T21:30:00.161Z,13.93
2022-12-29T21:32:26.758Z,13.70
2022-12-29T21:34:53.428Z,13.93
2022-12-29T21:37:23.539Z,13.03
2022-12-29T21:39:50.505Z,9.88
2022-12-29T21:42:17.090Z,15.07
2022-12-29T21:44:43.747Z,12.52
2022-12-29T21:47:10.642Z,12.02
2022-12-29T21:49:37.204Z,10.83
2022-12-29T21:52:04.026Z,14.55
2022-12-29T21:54:30.965Z,14.98
2022-12-29T21:56:57.516Z,13.90
2022-12-29T21:59:24.118Z,15.13
2022-12-29T22:01:50.777Z,13.03
2022-12-29T22:04:19.906Z,11.88
2022-12-29T22:06:46.527Z,13.45
2022-12-29T22:09:13.030Z,12.20
2022-12-29T22:11:39.701Z,12.70
2022-12-29T22:14:06.314Z,12.83
2022-12-29T22:16:33.182Z,12.75
2022-12-29T22:18:59.733Z,13.13
2022-12-29T22:21:26.548Z,13.45
2022-12-29T22:23:53.100Z,11.38
2022-12-29T22:26:19.767Z,11.93
2022-12-29T22:28:46.436Z,12.85
2022-12-29T22:31:39.365Z,12.55
2022-12-29T22:34:06.020Z,13.63
2022-12-29T22:36:32.737Z,13.80
2022-12-29T22:38:59.601Z,13.17
2022-12-29T22:41:26.220Z,14.75
2022-12-29T22:43:52.794Z,13.40
2022-12-29T22:46:19.362Z,10.90
2022-12-29T22:48:46.037Z,11.50
2022-12-29T22:51:12.611Z,12.77
2022-12-29T22:53:39.167Z,13.65
2022-12-29T22:56:08.890Z,13.30
2022-12-29T22:58:35.564Z,11.68
2022-12-29T23:01:02.100Z,14.52
2022-12-29T23:03:28.917Z,13.50
2022-12-29T23:06:04.103Z,12.93
2022-12-29T23:08:38.378Z,14.23
2022-12-29T23:11:07.767Z,12.02
2022-12-29T23:13:34.855Z,13.45
2022-12-29T23:16:01.490Z,12.80
2022-12-29T23:18:28.179Z,13.68
2022-12-29T23:20:54.990Z,11.77
2022-12-29T23:23:21.878Z,9.77
2022-12-29T23:25:48.480Z,11.93
2022-12-29T23:28:15.024Z,13.83
2022-12-29T23:30:41.649Z,14.70
2022-12-29T23:33:08.214Z,12.23
2022-12-29T23:35:34.769Z,9.68
2022-12-29T23:38:01.375Z,13.15
2022-12-29T23:40:27.913Z,15.00
2022-12-29T23:42:54.389Z,13.25
2022-12-29T23:45:20.925Z,12.60
2022-12-29T23:47:47.500Z,13.77
2022-12-29T23:50:14.057Z,13.75
2022-12-29T23:52:40.961Z,7.17
2022-12-29T23:55:08.467Z,12.20
2022-12-29T23:57:35.322Z,14.88
